Time;durP1;ratioP1;P1;durP2;ratioP2;P2;SDS_P1;SDS_P2;PMS_P1;PMS_P2;Temp;Humidity;BMP_temperature;BMP_pressure;BME280_temperature;BME280_humidity;BME280_pressure;Samples;Min_cycle;Max_cycle;Signal;HPM_P1;HPM_P2
2022/09/07 00:00:47;;;;;;;;;;;26.20;99.90;;;;;;5033818;28;19928;-72
2022/09/07 00:03:13;;;;;;;12.45;3.45;;;26.30;99.90;;;;;;5032979;28;19905;-71
2022/09/07 00:05:43;;;;;;;13.25;3.53;;;26.20;99.90;;;;;;5033103;28;20592;-72
2022/09/07 00:08:10;;;;;;;12.20;2.97;;;26.20;99.90;;;;;;5033013;28;20036;-72
2022/09/07 00:10:37;;;;;;;13.98;3.25;;;26.20;99.90;;;;;;5033015;28;20022;-72
2022/09/07 00:13:04;;;;;;;14.95;4.28;;;26.20;99.90;;;;;;5033048;28;20056;-72
2022/09/07 00:15:30;;;;;;;9.40;3.20;;;26.20;99.90;;;;;;5032761;28;20477;-72
2022/09/07 00:17:56;;;;;;;13.75;3.40;;;26.20;99.90;;;;;;5032734;28;20048;-72
2022/09/07 00:20:22;;;;;;;11.65;3.20;;;26.30;99.90;;;;;;5032812;28;20021;-72
2022/09/07 00:22:48;;;;;;;9.65;3.00;;;26.20;99.90;;;;;;5032891;28;20072;-72
2022/09/07 00:25:14;;;;;;;8.25;3.30;;;26.30;99.90;;;;;;5030958;28;20022;-72
2022/09/07 00:27:40;;;;;;;7.90;3.15;;;26.30;99.90;;;;;;5032284;28;20028;-72
2022/09/07 00:30:07;;;;;;;15.02;3.22;;;26.30;99.90;;;;;;5032336;28;20350;-71
2022/09/07 00:32:33;;;;;;;10.90;3.75;;;26.20;99.90;;;;;;5032410;28;20029;-72
2022/09/07 00:34:59;;;;;;;8.48;2.95;;;26.20;99.90;;;;;;5030839;28;20026;-72
2022/09/07 00:37:26;;;;;;;11.57;3.45;;;26.20;99.90;;;;;;5032176;28;20026;-72
2022/09/07 00:39:52;;;;;;;9.73;3.22;;;26.20;99.90;;;;;;5032133;28;20099;-72
2022/09/07 00:42:19;;;;;;;11.05;3.03;;;26.20;99.90;;;;;;5032602;28;20056;-72
2022/09/07 00:44:54;;;;;;;15.70;3.60;;;26.20;99.90;;;;;;5032481;28;20026;-72
2022/09/07 00:47:37;;;;;;;8.23;2.85;;;26.20;99.90;;;;;;5032478;28;20036;-72
2022/09/07 00:50:11;;;;;;;8.18;3.10;;;26.10;99.90;;;;;;5032523;28;20062;-72
2022/09/07 00:52:38;;;;;;;14.60;3.30;;;26.20;99.90;;;;;;5032308;28;20033;-72
2022/09/07 00:55:09;;;;;;;9.43;2.75;;;26.20;99.90;;;;;;5032397;28;20100;-72
2022/09/07 00:57:37;;;;;;;10.90;2.78;;;26.20;99.90;;;;;;5032337;28;20034;-72
2022/09/07 01:00:04;;;;;;;13.18;3.20;;;26.20;99.90;;;;;;5032204;28;20029;-72
2022/09/07 01:02:30;;;;;;;11.13;2.95;;;26.10;99.90;;;;;;5030407;28;20036;-72
2022/09/07 01:05:03;;;;;;;11.35;3.70;;;26.10;99.90;;;;;;5032155;28;20068;-72
2022/09/07 01:07:29;;;;;;;12.07;3.30;;;26.20;99.90;;;;;;5032128;28;20034;-72
2022/09/07 01:09:56;;;;;;;9.02;3.08;;;26.10;99.90;;;;;;5031938;28;20025;-72
2022/09/07 01:12:22;;;;;;;16.58;3.63;;;26.10;99.90;;;;;;5031931;28;20040;-72
2022/09/07 01:14:51;;;;;;;12.00;3.47;;;26.10;99.90;;;;;;5031705;28;20108;-71
2022/09/07 01:17:48;;;;;;;7.78;2.90;;;26.10;99.90;;;;;;5031386;28;20033;-72
2022/09/07 01:20:39;;;;;;;10.60;3.35;;;26.20;99.90;;;;;;5031499;28;20036;-72
2022/09/07 01:23:36;;;;;;;12.57;3.17;;;26.20;99.90;;;;;;5031374;28;20111;-72
2022/09/07 01:26:13;;;;;;;9.18;2.97;;;26.20;99.90;;;;;;5031883;28;20032;-72
2022/09/07 01:28:41;;;;;;;12.18;3.92;;;26.20;99.90;;;;;;5031479;28;20119;-71
2022/09/07 01:31:25;;;;;;;7.75;2.97;;;26.20;99.90;;;;;;5031663;28;20096;-72
2022/09/07 01:34:04;;;;;;;11.00;3.00;;;26.20;99.90;;;;;;5031414;28;20064;-71
2022/09/07 01:36:43;;;;;;;9.13;3.30;;;26.20;99.90;;;;;;5031579;28;20025;-71
2022/09/07 01:39:09;;;;;;;9.70;2.70;;;26.10;99.90;;;;;;5030728;28;20111;-71
2022/09/07 01:41:42;;;;;;;;;;;26.10;99.90;;;;;;5031608;28;20026;-71
2022/09/07 01:44:25;;;;;;;10.50;3.20;;;26.20;99.90;;;;;;5031465;28;19923;-71
2022/09/07 01:47:06;;;;;;;11.48;2.75;;;26.20;99.90;;;;;;5031211;28;20496;-71
2022/09/07 01:49:45;;;;;;;9.00;2.78;;;26.20;99.90;;;;;;5031468;28;20056;-72
2022/09/07 01:52:24;;;;;;;8.95;2.95;;;26.10;99.90;;;;;;5031289;28;20037;-71
2022/09/07 01:54:59;;;;;;;12.27;3.45;;;26.10;99.90;;;;;;5031222;28;20056;-72
2022/09/07 01:57:32;;;;;;;14.70;3.70;;;26.00;99.90;;;;;;5029412;28;20136;-72
2022/09/07 02:00:07;;;;;;;10.60;3.80;;;25.90;99.90;;;;;;5031143;28;20033;-71
2022/09/07 02:02:43;;;;;;;11.45;3.70;;;25.80;99.90;;;;;;5031000;28;20104;-71
2022/09/07 02:05:17;;;;;;;10.02;3.28;;;25.70;99.90;;;;;;5029378;28;20029;-71
2022/09/07 02:07:49;;;;;;;10.50;3.60;;;25.60;99.90;;;;;;5030662;28;20044;-71
2022/09/07 02:10:46;;;;;;;16.08;4.07;;;25.50;99.90;;;;;;5030915;28;20434;-71
2022/09/07 02:13:35;;;;;;;11.93;3.10;;;25.50;99.90;;;;;;5030791;28;20163;-71
2022/09/07 02:16:25;;;;;;;10.70;3.40;;;25.40;99.90;;;;;;5023659;28;20037;-71
2022/09/07 02:19:00;;;;;;;11.27;3.95;;;25.30;99.90;;;;;;5030904;28;20084;-71
2022/09/07 02:21:33;;;;;;;15.82;3.50;;;25.30;99.90;;;;;;5030630;28;20378;-71
2022/09/07 02:24:11;;;;;;;16.15;3.80;;;25.30;99.90;;;;;;5029170;28;20496;-71
2022/09/07 02:26:39;;;;;;;10.05;3.63;;;25.30;99.90;;;;;;5031017;28;20099;-71
2022/09/07 02:29:06;;;;;;;10.25;3.67;;;25.30;99.90;;;;;;5029528;28;20075;-71
2022/09/07 02:31:33;;;;;;;13.55;3.97;;;25.30;99.90;;;;;;5030361;28;20044;-72
2022/09/07 02:34:02;;;;;;;13.15;3.40;;;25.20;99.90;;;;;;5030364;28;20104;-72
2022/09/07 02:36:34;;;;;;;14.20;3.92;;;25.20;99.90;;;;;;5030402;28;20104;-71
2022/09/07 02:39:00;;;;;;;13.68;3.50;;;25.20;99.90;;;;;;5030474;28;20030;-72
2022/09/07 02:41:39;;;;;;;10.20;3.50;;;25.20;99.90;;;;;;5030475;28;20408;-71
2022/09/07 02:44:10;;;;;;;10.48;4.20;;;25.10;99.90;;;;;;5030566;28;20052;-71
2022/09/07 02:46:48;;;;;;;12.65;3.72;;;25.10;99.90;;;;;;5030612;28;20062;-71
2022/09/07 02:49:17;;;;;;;8.18;3.50;;;25.00;99.90;;;;;;5030306;28;20100;-71
2022/09/07 02:51:57;;;;;;;11.07;3.40;;;25.00;99.90;;;;;;5031129;28;20033;-71
2022/09/07 02:54:36;;;;;;;8.65;3.47;;;24.90;99.90;;;;;;5034707;28;20149;-71
2022/09/07 02:57:32;;;;;;;13.70;3.75;;;25.00;99.90;;;;;;5034633;28;20407;-71
2022/09/07 03:00:13;;;;;;;10.93;3.72;;;24.90;99.90;;;;;;5033905;28;20029;-72
2022/09/07 03:02:48;;;;;;;10.60;3.70;;;24.90;99.90;;;;;;5034283;28;20120;-71
2022/09/07 03:05:35;;;;;;;11.75;3.83;;;24.80;99.90;;;;;;5034227;28;20051;-71
2022/09/07 03:08:21;;;;;;;11.95;3.75;;;24.80;99.90;;;;;;5034496;28;20469;-71
2022/09/07 03:10:48;;;;;;;12.18;3.60;;;24.90;99.90;;;;;;5034411;28;20044;-71
2022/09/07 03:13:26;;;;;;;15.60;4.18;;;24.90;99.90;;;;;;5034051;28;20070;-71
2022/09/07 03:15:52;;;;;;;8.60;3.35;;;24.80;99.90;;;;;;5034418;28;20477;-71
2022/09/07 03:18:18;;;;;;;7.40;3.40;;;24.80;99.90;;;;;;5034207;28;20056;-70
2022/09/07 03:20:44;;;;;;;11.43;3.33;;;24.80;99.90;;;;;;5034334;28;20032;-71
2022/09/07 03:23:11;;;;;;;12.75;4.10;;;24.90;99.90;;;;;;5034854;28;20022;-71
2022/09/07 03:25:37;;;;;;;;;;;24.90;99.90;;;;;;5034757;28;20018;-71
2022/09/07 03:28:03;;;;;;;;;;;24.80;99.90;;;;;;5034971;28;20015;-71
2022/09/07 03:30:29;;;;;;;8.38;3.05;;;24.80;99.90;;;;;;5034603;28;20274;-71
2022/09/07 03:32:55;;;;;;;7.35;3.47;;;24.90;99.90;;;;;;5034227;28;20068;-71
2022/09/07 03:35:21;;;;;;;14.32;3.78;;;24.80;99.90;;;;;;5034425;28;20082;-71
2022/09/07 03:37:47;;;;;;;14.40;3.97;;;24.80;99.90;;;;;;5034088;28;20032;-71
2022/09/07 03:40:15;;;;;;;11.57;3.92;;;24.80;99.90;;;;;;5034201;28;20029;-71
2022/09/07 03:42:41;;;;;;;13.45;3.55;;;24.70;99.90;;;;;;5034230;28;20022;-71
2022/09/07 03:45:09;;;;;;;10.00;3.13;;;24.70;99.90;;;;;;5032648;28;20088;-70
2022/09/07 03:47:36;;;;;;;8.63;3.63;;;24.70;99.90;;;;;;5033851;28;20439;-71
2022/09/07 03:50:04;;;;;;;12.82;3.58;;;24.70;99.90;;;;;;5032203;28;20025;-71
2022/09/07 03:52:30;;;;;;;14.50;4.45;;;24.60;99.90;;;;;;5033854;28;20052;-72
2022/09/07 03:54:56;;;;;;;11.90;3.80;;;24.60;99.90;;;;;;5033978;28;20108;-71
2022/09/07 03:57:22;;;;;;;9.13;2.97;;;24.70;99.90;;;;;;5033891;28;20501;-71
2022/09/07 03:59:51;;;;;;;11.90;3.88;;;24.70;99.90;;;;;;5032137;28;20029;-71
2022/09/07 04:02:17;;;;;;;11.98;3.63;;;24.70;99.90;;;;;;5033388;28;20049;-71
2022/09/07 04:04:47;;;;;;;9.13;3.22;;;24.70;99.90;;;;;;5033606;28;20030;-71
2022/09/07 04:07:13;;;;;;;11.25;2.85;;;24.70;99.90;;;;;;5033449;28;20032;-71
2022/09/07 04:09:39;;;;;;;13.50;3.70;;;24.70;99.90;;;;;;5033317;28;20033;-71
2022/09/07 04:12:06;;;;;;;9.45;3.33;;;24.70;99.90;;;;;;5033463;28;20024;-71
2022/09/07 04:14:32;;;;;;;8.27;2.97;;;24.70;99.90;;;;;;5033257;28;20064;-71
2022/09/07 04:16:58;;;;;;;10.73;3.50;;;24.70;99.90;;;;;;5034252;28;20029;-70
2022/09/07 04:19:24;;;;;;;13.10;3.17;;;24.60;99.90;;;;;;5034840;28;20452;-71
2022/09/07 04:21:50;;;;;;;12.38;3.20;;;24.70;99.90;;;;;;5034668;28;20045;-71
2022/09/07 04:24:17;;;;;;;10.60;2.80;;;24.70;99.90;;;;;;5034837;28;20060;-71
2022/09/07 04:26:44;;;;;;;11.90;3.20;;;24.70;99.90;;;;;;5034809;28;20076;-71
2022/09/07 04:29:11;;;;;;;9.18;2.85;;;24.70;99.90;;;;;;5034583;28;20125;-71
2022/09/07 04:31:38;;;;;;;11.32;3.13;;;24.60;99.90;;;;;;5034474;28;20040;-71
2022/09/07 04:34:06;;;;;;;14.20;3.38;;;24.60;99.90;;;;;;5034191;28;20025;-71
2022/09/07 04:36:32;;;;;;;10.38;3.13;;;24.60;99.90;;;;;;5034134;28;20029;-71
2022/09/07 04:39:00;;;;;;;9.88;3.10;;;24.60;99.90;;;;;;5034952;28;20042;-71
2022/09/07 04:41:28;;;;;;;13.80;3.88;;;24.60;99.90;;;;;;5034701;28;20022;-71
2022/09/07 04:43:56;;;;;;;8.35;3.33;;;24.60;99.90;;;;;;5034407;28;20091;-71
2022/09/07 04:46:24;;;;;;;8.73;2.88;;;24.70;99.90;;;;;;5034292;28;20021;-71
2022/09/07 04:48:55;;;;;;;10.77;3.50;;;24.70;99.90;;;;;;5034255;28;20033;-71
2022/09/07 04:51:25;;;;;;;7.93;3.25;;;24.70;99.90;;;;;;5034694;28;20013;-71
2022/09/07 04:53:52;;;;;;;7.75;3.10;;;24.70;99.90;;;;;;5034225;28;20347;-71
2022/09/07 04:56:20;;;;;;;10.77;3.00;;;24.70;99.90;;;;;;5034449;28;20025;-71
2022/09/07 04:58:47;;;;;;;7.22;3.05;;;24.70;99.90;;;;;;5033926;28;20179;-72
2022/09/07 05:01:19;;;;;;;11.88;2.67;;;24.70;99.90;;;;;;5034088;28;20029;-70
2022/09/07 05:03:46;;;;;;;8.55;3.08;;;24.80;99.90;;;;;;5033885;28;20030;-72
2022/09/07 05:06:13;;;;;;;16.30;3.40;;;24.80;99.90;;;;;;5033560;28;20017;-71
2022/09/07 05:08:42;;;;;;;11.63;2.95;;;24.90;99.90;;;;;;5034176;28;20033;-71
2022/09/07 05:11:10;;;;;;;10.80;2.58;;;25.00;99.90;;;;;;5033468;28;20108;-71
2022/09/07 05:13:37;;;;;;;10.93;3.45;;;25.00;99.90;;;;;;5033294;28;20029;-71
2022/09/07 05:16:17;;;;;;;8.45;2.72;;;25.10;99.90;;;;;;5033150;28;20017;-72
2022/09/07 05:18:43;;;;;;;14.30;2.85;;;25.20;99.90;;;;;;5033893;28;20103;-72
2022/09/07 05:21:13;;;;;;;8.55;2.83;;;25.20;99.90;;;;;;5034092;28;20025;-72
2022/09/07 05:23:39;;;;;;;12.15;2.97;;;25.30;99.90;;;;;;5033563;28;20108;-72
2022/09/07 05:26:06;;;;;;;6.88;2.42;;;25.40;99.90;;;;;;5033135;28;20029;-72
2022/09/07 05:28:34;;;;;;;12.40;2.53;;;25.60;99.90;;;;;;5033238;28;20033;-72
2022/09/07 05:31:05;;;;;;;6.90;2.10;;;26.00;99.90;;;;;;5033924;28;20052;-72
2022/09/07 05:33:31;;;;;;;7.13;2.20;;;26.40;99.90;;;;;;5031703;28;20037;-72
2022/09/07 05:36:01;;;;;;;8.52;2.20;;;26.70;99.90;;;;;;5033013;28;20059;-72
2022/09/07 05:38:27;;;;;;;9.48;2.58;;;27.10;99.90;;;;;;5033178;28;20049;-72
2022/09/07 05:40:54;;;;;;;7.00;2.08;;;27.50;99.90;;;;;;5033190;28;20125;-72
2022/09/07 05:43:20;;;;;;;9.98;2.38;;;28.10;99.90;;;;;;5033188;28;20087;-72
2022/09/07 05:45:47;;;;;;;8.55;2.00;;;28.50;99.90;;;;;;5033503;28;20462;-72
2022/09/07 05:48:13;;;;;;;14.20;2.38;;;28.80;99.90;;;;;;5033325;28;20408;-72
2022/09/07 05:50:48;;;;;;;12.60;2.60;;;29.20;99.90;;;;;;5032940;28;20052;-72
2022/09/07 05:53:14;;;;;;;7.43;2.00;;;29.30;99.90;;;;;;5032549;28;20378;-73
2022/09/07 05:55:40;;;;;;;10.73;2.30;;;29.50;99.90;;;;;;5033791;28;20025;-72
2022/09/07 05:58:06;;;;;;;10.70;2.15;;;29.80;99.90;;;;;;5032879;28;20029;-72
2022/09/07 06:00:32;;;;;;;15.85;2.20;;;30.00;99.90;;;;;;5032872;28;20381;-72
2022/09/07 06:02:58;;;;;;;10.52;1.98;;;30.60;99.90;;;;;;5032225;28;20029;-73
2022/09/07 06:05:24;;;;;;;10.23;1.77;;;31.30;99.90;;;;;;5032166;28;20198;-73
2022/09/07 06:07:51;;;;;;;8.15;1.88;;;31.70;99.90;;;;;;5032424;28;20053;-72
2022/09/07 06:10:18;;;;;;;10.18;2.20;;;32.90;99.90;;;;;;5032284;28;20033;-72
2022/09/07 06:12:45;;;;;;;11.55;1.95;;;34.10;99.90;;;;;;5032512;28;20473;-73
2022/09/07 06:15:11;;;;;;;8.20;1.80;;;35.20;99.90;;;;;;5030702;28;20032;-73
2022/09/07 06:17:37;;;;;;;10.07;1.70;;;35.90;99.90;;;;;;5032387;28;20030;-73
2022/09/07 06:20:05;;;;;;;13.63;2.30;;;36.50;99.90;;;;;;5031752;28;20393;-73
2022/09/07 06:22:34;;;;;;;9.05;2.10;;;37.10;99.90;;;;;;5032008;28;20469;-72
2022/09/07 06:25:00;;;;;;;10.20;2.25;;;37.60;99.90;;;;;;5030223;28;20057;-72
2022/09/07 06:27:26;;;;;;;10.77;2.08;;;38.40;99.90;;;;;;5031479;28;20433;-72
2022/09/07 06:29:52;;;;;;;9.27;1.80;;;39.20;99.90;;;;;;5031475;28;20045;-71
2022/09/07 06:32:18;;;;;;;7.80;2.55;;;39.80;99.90;;;;;;5031595;28;20026;-71
2022/09/07 06:34:44;;;;;;;8.73;2.03;;;40.30;99.90;;;;;;5031785;28;20030;-72
2022/09/07 06:37:10;;;;;;;7.38;1.67;;;40.70;99.90;;;;;;5030665;28;20021;-71
2022/09/07 06:39:36;;;;;;;10.63;1.92;;;41.10;99.00;;;;;;5031716;28;20084;-72
2022/09/07 06:42:03;;;;;;;11.07;2.40;;;41.60;98.00;;;;;;5031252;28;20478;-72
2022/09/07 06:44:30;;;;;;;8.15;1.70;;;42.00;97.10;;;;;;5032258;28;20048;-72
2022/09/07 06:46:56;;;;;;;30.15;2.60;;;42.20;96.10;;;;;;5031970;28;20030;-72
2022/09/07 06:49:23;;;;;;;6.10;1.55;;;42.30;96.00;;;;;;5032655;28;20099;-72
2022/09/07 06:51:49;;;;;;;7.13;1.90;;;41.40;95.90;;;;;;5032035;28;20104;-72
2022/09/07 06:54:16;;;;;;;13.18;2.22;;;41.90;96.00;;;;;;5031805;28;20093;-72
2022/09/07 06:56:42;;;;;;;12.65;2.83;;;42.40;95.50;;;;;;5032005;28;20087;-72
2022/09/07 06:59:09;;;;;;;28.92;4.32;;;42.80;95.00;;;;;;5031660;28;20083;-72
2022/09/07 07:01:35;;;;;;;11.30;3.10;;;42.80;94.50;;;;;;5031823;28;20021;-72
2022/09/07 07:04:02;;;;;;;15.65;2.38;;;43.00;94.10;;;;;;5031586;28;20017;-72
2022/09/07 07:06:38;;;;;;;11.82;2.50;;;42.90;94.10;;;;;;5032019;28;20099;-72
2022/09/07 07:09:07;;;;;;;12.10;2.17;;;43.40;93.80;;;;;;5031712;28;20030;-72
2022/09/07 07:11:35;;;;;;;8.32;1.77;;;43.40;93.30;;;;;;5032315;28;20105;-72
2022/09/07 07:14:01;;;;;;;12.45;1.90;;;43.60;93.50;;;;;;5031753;28;20486;-72
2022/09/07 07:16:28;;;;;;;9.98;1.90;;;43.60;93.50;;;;;;5030269;28;20033;-73
2022/09/07 07:18:55;;;;;;;8.98;1.92;;;43.40;93.70;;;;;;5031677;28;20115;-72
2022/09/07 07:21:21;;;;;;;11.18;1.98;;;42.40;94.50;;;;;;5031723;28;20022;-72
2022/09/07 07:23:52;;;;;;;7.80;2.00;;;42.40;94.80;;;;;;5031605;28;20037;-72
2022/09/07 07:26:20;;;;;;;7.65;1.50;;;42.00;95.50;;;;;;5031757;28;20030;-72
2022/09/07 07:28:49;;;;;;;9.00;2.28;;;41.40;96.20;;;;;;5031508;28;20090;-72
2022/09/07 07:31:17;;;;;;;8.60;1.80;;;40.90;96.70;;;;;;5032217;28;20108;-72
2022/09/07 07:33:45;;;;;;;9.82;2.28;;;40.20;97.40;;;;;;5031667;28;20025;-72
2022/09/07 07:36:21;;;;;;;12.98;1.77;;;39.80;98.20;;;;;;5031211;28;20082;-72
2022/09/07 07:38:50;;;;;;;12.98;2.20;;;38.90;98.80;;;;;;5034112;28;20041;-72
2022/09/07 07:41:18;;;;;;;11.68;1.90;;;37.90;99.00;;;;;;5035301;28;20523;-73
2022/09/07 07:43:45;;;;;;;10.20;1.88;;;37.30;99.90;;;;;;5034976;28;20108;-72
2022/09/07 07:46:17;;;;;;;9.98;1.88;;;36.80;99.90;;;;;;5033547;28;20511;-72
2022/09/07 07:48:46;;;;;;;14.13;2.67;;;36.20;99.90;;;;;;5034791;28;20025;-72
2022/09/07 07:51:13;;;;;;;7.60;1.75;;;36.00;99.90;;;;;;5034818;28;20342;-72
2022/09/07 07:53:40;;;;;;;12.02;1.77;;;35.80;99.90;;;;;;5034229;28;20030;-72
2022/09/07 07:56:08;;;;;;;10.32;1.92;;;35.30;99.90;;;;;;5034448;28;20024;-72
2022/09/07 07:58:37;;;;;;;6.68;1.42;;;35.10;99.90;;;;;;5034090;28;20043;-72
2022/09/07 08:01:09;;;;;;;11.73;2.15;;;35.00;99.90;;;;;;5034632;28;20018;-71
2022/09/07 08:03:37;;;;;;;7.93;1.90;;;35.00;99.90;;;;;;5034040;28;20041;-72
2022/09/07 08:06:10;;;;;;;9.88;2.22;;;35.00;99.90;;;;;;5034161;28;20476;-72
2022/09/07 08:08:37;;;;;;;8.18;1.77;;;34.80;99.90;;;;;;5034182;28;20040;-72
2022/09/07 08:11:08;;;;;;;6.57;1.73;;;34.90;99.90;;;;;;5033927;28;20048;-73
2022/09/07 08:13:35;;;;;;;10.00;1.90;;;34.80;99.90;;;;;;5034301;28;20025;-72
2022/09/07 08:16:01;;;;;;;8.07;1.83;;;34.60;99.90;;;;;;5034259;28;20057;-71
2022/09/07 08:18:27;;;;;;;6.40;1.70;;;34.60;99.90;;;;;;5032873;28;20042;-72
2022/09/07 08:20:58;;;;;;;7.70;1.95;;;33.70;99.90;;;;;;5034582;28;20053;-72
2022/09/07 08:23:24;;;;;;;8.52;2.00;;;33.40;99.90;;;;;;5034605;28;20064;-72
2022/09/07 08:25:54;;;;;;;;;;;33.40;99.90;;;;;;5035171;28;20049;-72
2022/09/07 08:28:22;;;;;;;11.65;2.28;;;33.00;99.90;;;;;;5034372;28;19963;-72
2022/09/07 08:30:50;;;;;;;9.35;2.10;;;32.90;99.90;;;;;;5034016;28;20092;-72
2022/09/07 08:33:16;;;;;;;7.43;1.83;;;33.20;99.90;;;;;;5034052;28;20033;-73
2022/09/07 08:35:42;;;;;;;5.15;1.98;;;33.40;99.90;;;;;;5034052;28;20416;-71
2022/09/07 08:38:08;;;;;;;7.80;2.72;;;33.20;99.90;;;;;;5034360;28;20172;-72
2022/09/07 08:40:37;;;;;;;15.93;2.50;;;33.20;99.90;;;;;;5034205;28;20084;-72
2022/09/07 08:43:11;;;;;;;11.73;1.73;;;33.20;99.90;;;;;;5033686;28;20134;-72
2022/09/07 08:45:53;;;;;;;6.78;1.70;;;33.00;99.90;;;;;;5032321;28;20060;-72
2022/09/07 08:48:28;;;;;;;7.80;1.60;;;33.00;99.90;;;;;;5033953;28;20040;-72
2022/09/07 08:51:11;;;;;;;10.03;2.40;;;33.10;99.90;;;;;;5033496;28;20084;-72
2022/09/07 08:53:45;;;;;;;8.63;1.70;;;33.00;99.90;;;;;;5032438;28;20112;-72
2022/09/07 08:56:36;;;;;;;8.65;1.30;;;33.00;99.90;;;;;;5033896;28;20025;-72
2022/09/07 08:59:37;;;;;;;10.07;1.42;;;33.00;99.90;;;;;;5033556;28;20041;-72
2022/09/07 09:02:07;;;;;;;8.32;1.60;;;32.90;99.90;;;;;;5032895;28;20033;-72
2022/09/07 09:04:34;;;;;;;8.80;1.70;;;32.80;99.90;;;;;;5033312;28;20112;-71
2022/09/07 09:07:07;;;;;;;8.35;1.65;;;32.70;99.90;;;;;;5033467;28;20022;-71
2022/09/07 09:09:57;;;;;;;7.28;1.50;;;32.60;99.90;;;;;;5033723;28;20470;-72
2022/09/07 09:12:30;;;;;;;11.40;2.17;;;32.40;99.90;;;;;;5033626;28;20025;-71
2022/09/07 09:15:08;;;;;;;8.30;1.70;;;32.40;99.90;;;;;;5033374;28;20449;-72
2022/09/07 09:17:46;;;;;;;9.52;1.70;;;32.20;99.90;;;;;;5031534;28;20353;-72
2022/09/07 09:20:31;;;;;;;6.70;1.80;;;32.00;99.90;;;;;;5033635;28;20057;-71
2022/09/07 09:23:05;;;;;;;8.02;1.55;;;31.60;99.90;;;;;;5032816;28;20029;-72
2022/09/07 09:25:34;;;;;;;8.20;1.77;;;31.60;99.90;;;;;;5033173;28;20500;-71
2022/09/07 09:28:00;;;;;;;4.32;1.52;;;31.40;99.90;;;;;;5033054;28;20049;-71
2022/09/07 09:30:27;;;;;;;8.80;1.83;;;31.50;99.90;;;;;;5032736;28;20124;-71
2022/09/07 09:33:16;;;;;;;5.72;1.60;;;31.50;99.90;;;;;;5032820;28;20112;-71
2022/09/07 09:35:44;;;;;;;9.07;1.63;;;31.30;99.90;;;;;;5032822;28;20028;-71
2022/09/07 09:38:31;;;;;;;8.32;2.13;;;31.40;99.90;;;;;;5032304;28;20041;-71
2022/09/07 09:41:04;;;;;;;7.20;1.45;;;31.50;99.90;;;;;;5032813;28;20025;-71
2022/09/07 09:43:56;;;;;;;7.20;1.65;;;31.50;99.90;;;;;;5032321;28;20021;-70
2022/09/07 09:46:37;;;;;;;4.82;1.40;;;31.50;99.90;;;;;;5032233;28;20052;-71
2022/09/07 09:49:34;;;;;;;7.40;1.83;;;31.20;99.90;;;;;;5030963;28;20017;-72
2022/09/07 09:52:03;;;;;;;7.03;1.50;;;31.50;99.90;;;;;;5009767;28;20068;-72
2022/09/07 09:54:38;;;;;;;5.60;1.55;;;31.70;99.90;;;;;;5010329;28;20466;-72
2022/09/07 09:57:04;;;;;;;7.68;1.60;;;31.70;99.90;;;;;;5010125;28;20038;-72
2022/09/07 09:59:32;;;;;;;9.60;1.60;;;31.90;99.90;;;;;;5010020;28;20046;-72
2022/09/07 10:02:15;;;;;;;7.97;1.52;;;32.20;99.90;;;;;;5009432;28;20042;-72
2022/09/07 10:04:42;;;;;;;7.60;1.77;;;32.30;99.90;;;;;;4993923;28;20125;-72
2022/09/07 10:07:19;;;;;;;10.50;1.80;;;32.10;99.90;;;;;;5010745;28;20054;-72
2022/09/07 10:09:50;;;;;;;5.50;1.52;;;32.10;99.90;;;;;;5010831;28;20095;-72
2022/09/07 10:12:29;;;;;;;5.13;1.42;;;32.30;99.90;;;;;;5010347;28;20029;-72
2022/09/07 10:14:56;;;;;;;5.28;1.50;;;32.40;99.90;;;;;;5010226;28;20470;-72
2022/09/07 10:17:40;;;;;;;6.88;1.95;;;32.40;99.90;;;;;;5010648;28;20037;-72
2022/09/07 10:20:15;;;;;;;5.90;1.13;;;32.40;99.90;;;;;;5011454;28;20045;-72
2022/09/07 10:22:53;;;;;;;3.75;1.25;;;32.40;99.90;;;;;;5011302;28;20049;-73
2022/09/07 10:25:40;;;;;;;5.03;1.30;;;32.60;99.90;;;;;;5011268;28;20030;-72
2022/09/07 10:28:06;;;;;;;7.85;2.08;;;32.80;99.90;;;;;;5018920;28;20057;-72
2022/09/07 10:30:37;;;;;;;;;;;32.80;99.90;;;;;;5032913;28;20152;-72
2022/09/07 10:33:24;;;;;;;10.50;1.80;;;32.90;99.90;;;;;;5033087;28;19912;-72
2022/09/07 10:36:30;;;;;;;7.45;1.67;;;32.90;99.90;;;;;;5032715;28;20045;-73
2022/09/07 10:39:03;;;;;;;6.03;1.63;;;32.60;99.90;;;;;;5031132;28;20096;-73
2022/09/07 10:42:01;;;;;;;10.18;1.70;;;32.50;99.90;;;;;;5032536;28;20101;-73
2022/09/07 10:44:29;;;;;;;6.45;1.45;;;32.70;99.90;;;;;;5032683;28;20026;-73
2022/09/07 10:47:24;;;;;;;15.15;2.22;;;32.80;99.90;;;;;;5033261;28;20057;-73
2022/09/07 10:50:02;;;;;;;5.53;1.55;;;32.80;99.90;;;;;;5024067;28;20041;-73
2022/09/07 10:52:51;;;;;;;8.20;1.50;;;32.60;99.90;;;;;;5032606;28;20099;-72
2022/09/07 10:55:29;;;;;;;5.57;1.40;;;32.40;99.90;;;;;;5032432;28;20111;-72
2022/09/07 10:58:10;;;;;;;8.82;1.60;;;32.40;99.90;;;;;;5032093;28;20025;-72
2022/09/07 11:00:47;;;;;;;8.57;1.60;;;32.60;99.90;;;;;;5032070;28;20040;-72
2022/09/07 11:03:34;;;;;;;12.07;1.50;;;32.70;99.90;;;;;;5032370;28;20454;-72
2022/09/07 11:06:09;;;;;;;5.50;1.55;;;32.90;99.90;;;;;;5032539;28;20032;-72
2022/09/07 11:09:12;;;;;;;7.40;1.70;;;32.80;99.90;;;;;;5031976;28;20037;-72
2022/09/07 11:11:43;;;;;;;10.63;1.70;;;32.60;99.90;;;;;;5032217;28;20029;-72
2022/09/07 11:14:20;;;;;;;7.00;1.60;;;32.60;99.90;;;;;;5034977;28;20041;-72
2022/09/07 11:17:13;;;;;;;5.75;1.58;;;32.60;99.90;;;;;;5036492;28;20087;-72
2022/09/07 11:19:43;;;;;;;6.35;1.77;;;32.70;99.90;;;;;;5033123;28;20052;-72
2022/09/07 11:22:41;;;;;;;10.45;1.85;;;33.00;99.90;;;;;;5036339;28;20041;-72
2022/09/07 11:25:12;;;;;;;16.08;2.08;;;33.20;99.90;;;;;;5036478;28;20113;-72
2022/09/07 11:27:48;;;;;;;5.78;1.52;;;33.40;99.90;;;;;;5036393;28;20033;-72
2022/09/07 11:30:18;;;;;;;7.15;1.55;;;33.50;99.90;;;;;;5035767;28;20560;-72
2022/09/07 11:33:14;;;;;;;6.70;1.50;;;33.50;99.90;;;;;;5035614;28;20041;-72
2022/09/07 11:36:11;;;;;;;7.72;1.77;;;33.70;99.90;;;;;;5036131;28;20064;-72
2022/09/07 11:38:53;;;;;;;5.68;1.40;;;33.40;99.90;;;;;;5035994;28;20025;-72
2022/09/07 11:41:33;;;;;;;7.15;1.63;;;33.40;99.90;;;;;;5035901;28;20033;-71
2022/09/07 11:44:02;;;;;;;3.97;1.33;;;33.30;99.90;;;;;;5035961;28;20108;-71
2022/09/07 11:46:50;;;;;;;7.28;1.30;;;33.40;99.90;;;;;;5035869;28;20032;-72
2022/09/07 11:49:25;;;;;;;5.97;1.30;;;33.50;99.90;;;;;;5034043;28;20028;-72
2022/09/07 11:52:05;;;;;;;7.25;1.67;;;33.40;99.90;;;;;;5035260;28;20065;-72
2022/09/07 11:54:48;;;;;;;6.43;1.25;;;33.40;99.90;;;;;;5035294;28;20456;-72
2022/09/07 11:57:14;;;;;;;5.70;1.48;;;33.50;99.90;;;;;;5035516;28;20017;-72
2022/09/07 11:59:43;;;;;;;;;;;33.70;99.90;;;;;;5035222;28;20048;-72
2022/09/07 12:02:47;;;;;;;7.40;1.80;;;33.70;99.90;;;;;;5035208;28;20273;-72
2022/09/07 12:05:36;;;;;;;6.63;1.50;;;33.70;99.90;;;;;;5012716;28;20038;-72
2022/09/07 12:08:23;;;;;;;8.50;1.75;;;33.80;99.90;;;;;;4992755;28;20308;-72
2022/09/07 12:11:13;;;;;;;10.13;1.42;;;33.70;99.90;;;;;;4996130;28;20185;-72
2022/09/07 12:14:07;;;;;;;7.63;1.40;;;33.60;99.90;;;;;;5012841;28;20048;-72
2022/09/07 12:16:51;;;;;;;8.18;1.40;;;33.90;99.90;;;;;;5013493;28;20098;-71
2022/09/07 12:19:23;;;;;;;8.88;1.40;;;34.00;99.90;;;;;;5013306;28;20129;-72
2022/09/07 12:21:52;;;;;;;6.78;1.80;;;33.60;99.90;;;;;;4996606;28;20038;-71
2022/09/07 12:24:42;;;;;;;9.27;1.77;;;33.60;99.90;;;;;;5012997;28;20069;-72
2022/09/07 12:27:21;;;;;;;7.57;1.52;;;33.80;99.90;;;;;;5013177;28;20036;-74
2022/09/07 12:30:10;;;;;;;10.00;1.52;;;33.80;99.90;;;;;;5012630;28;20042;-72
2022/09/07 12:32:48;;;;;;;11.18;1.70;;;33.80;99.90;;;;;;5013117;28;20045;-74
2022/09/07 12:35:32;;;;;;;6.65;1.70;;;33.80;99.90;;;;;;5012946;28;20113;-71
2022/09/07 12:38:16;;;;;;;6.80;1.83;;;33.80;99.90;;;;;;5012104;28;20088;-72
2022/09/07 12:41:06;;;;;;;6.65;1.70;;;33.60;99.90;;;;;;5012350;28;20034;-72
2022/09/07 12:43:47;;;;;;;8.18;1.70;;;33.50;99.90;;;;;;5033488;28;20482;-72
2022/09/07 12:46:31;;;;;;;5.45;1.50;;;33.40;99.90;;;;;;5032874;28;20398;-72
2022/09/07 12:49:06;;;;;;;8.32;1.73;;;33.40;99.90;;;;;;5032924;28;20124;-72
2022/09/07 12:51:37;;;;;;;13.35;1.95;;;33.40;99.90;;;;;;5033830;28;20026;-71
2022/09/07 12:54:13;;;;;;;6.88;1.50;;;33.50;99.90;;;;;;5034027;28;20026;-71
2022/09/07 12:56:48;;;;;;;8.77;1.48;;;33.70;99.90;;;;;;5033864;28;20084;-72
2022/09/07 12:59:33;;;;;;;8.02;1.77;;;33.70;99.90;;;;;;5033967;28;20127;-72
2022/09/07 13:02:24;;;;;;;11.93;1.60;;;33.70;99.90;;;;;;5032302;28;20029;-71
2022/09/07 13:05:28;;;;;;;10.05;1.90;;;33.50;99.90;;;;;;5033623;28;20104;-71
2022/09/07 13:08:31;;;;;;;9.90;1.60;;;33.50;99.90;;;;;;5011792;28;20068;-71
2022/09/07 13:11:34;;;;;;;13.23;2.00;;;32.80;99.90;;;;;;5011521;28;20042;-71
2022/09/07 13:14:16;;;;;;;10.23;1.48;;;32.70;99.90;;;;;;5011374;28;20359;-71